EXS5AE LGKR-EGNT
Flight info
| Callsign | EXS5AE |
|---|---|
| Flight time | N/A |
| Altitude | 36000 |
| Route | OLGAT DCT CRAYE DCT GISAM DCT RILIM DCT SAL DCT MINTU DCT LOS DCT RASUG DCT SOTOV DCT KPT L608 KUNOD DCT LIRSU DCT ARCKY DCT BUB DCT DENUT L610 NILON DCT WESUL M14 STOAT L613 MOGLI/N0389F280 L613 MAMUL UY250 RIMTO |
| Aircraft | B738/M-SDE2E3FGHIRWXY/LB1 |
Departure
| Time | N/A |
|---|---|
| Airport | Corfu Ioannis Kapodistrias International Airport (LGKR) |
Arrival
| Time | 2026-05-06 20:26 |
|---|---|
| Airport | Newcastle International Airport (EGNT) |
| Time | Latitude | Longitude | Altitude | Speed | Heading |
|---|---|---|---|---|---|
| 2026-05-06 18:42 | 48.87710 | 8.73608 | 35848 ft | 451 kts | 309° |
| 2026-05-06 18:43 | 48.94059 | 8.62992 | 35836 ft | 451 kts | 308° |
| 2026-05-06 18:43 | 48.98268 | 8.55930 | 35833 ft | 450 kts | 308° |
| 2026-05-06 18:44 | 49.02468 | 8.48863 | 35837 ft | 450 kts | 308° |
| 2026-05-06 18:44 | 49.06660 | 8.41793 | 35829 ft | 449 kts | 308° |
| 2026-05-06 18:45 | 49.10840 | 8.34722 | 35836 ft | 449 kts | 308° |
| 2026-05-06 18:45 | 49.15020 | 8.27632 | 35831 ft | 449 kts | 308° |
| 2026-05-06 18:46 | 49.19191 | 8.20537 | 35830 ft | 449 kts | 308° |
| 2026-05-06 18:46 | 49.23366 | 8.13416 | 35834 ft | 449 kts | 308° |
| 2026-05-06 18:47 | 49.27543 | 8.06272 | 35834 ft | 450 kts | 308° |
| 2026-05-06 18:47 | 49.31718 | 7.99114 | 35848 ft | 451 kts | 308° |
| 2026-05-06 18:48 | 49.35896 | 7.91932 | 35830 ft | 452 kts | 309° |
| 2026-05-06 18:48 | 49.40083 | 7.84731 | 35823 ft | 452 kts | 309° |
| 2026-05-06 18:49 | 49.43583 | 7.78685 | 35824 ft | 452 kts | 308° |
| 2026-05-06 18:49 | 49.48428 | 7.70286 | 35822 ft | 452 kts | 308° |
| 2026-05-06 18:50 | 49.51914 | 7.64225 | 35827 ft | 451 kts | 308° |
| 2026-05-06 18:50 | 49.56070 | 7.56981 | 35835 ft | 451 kts | 309° |
| 2026-05-06 18:51 | 49.60220 | 7.49728 | 35827 ft | 450 kts | 308° |
| 2026-05-06 18:51 | 49.64321 | 7.42541 | 35837 ft | 449 kts | 308° |
| 2026-05-06 18:52 | 49.68442 | 7.35300 | 35840 ft | 448 kts | 308° |
| 2026-05-06 18:52 | 49.72542 | 7.28074 | 35838 ft | 447 kts | 308° |
| 2026-05-06 18:53 | 49.76633 | 7.20844 | 35858 ft | 446 kts | 309° |
| 2026-05-06 18:53 | 49.80738 | 7.13568 | 35843 ft | 445 kts | 308° |
| 2026-05-06 18:54 | 49.84803 | 7.06344 | 35846 ft | 444 kts | 308° |
| 2026-05-06 18:54 | 49.88836 | 6.99157 | 35844 ft | 444 kts | 308° |
| 2026-05-06 18:55 | 49.92903 | 6.91889 | 35843 ft | 443 kts | 308° |
| 2026-05-06 18:55 | 49.96936 | 6.84661 | 35841 ft | 442 kts | 308° |
| 2026-05-06 18:56 | 50.00761 | 6.77206 | 35832 ft | 439 kts | 298° |
| 2026-05-06 18:56 | 50.03770 | 6.68874 | 35847 ft | 438 kts | 296° |
| 2026-05-06 18:57 | 50.06695 | 6.60463 | 35847 ft | 439 kts | 296° |
| 2026-05-06 18:57 | 50.09637 | 6.52125 | 35860 ft | 439 kts | 296° |
| 2026-05-06 18:58 | 50.12549 | 6.43957 | 35861 ft | 440 kts | 297° |
| 2026-05-06 18:58 | 50.15524 | 6.35624 | 35868 ft | 440 kts | 297° |
| 2026-05-06 18:59 | 50.18515 | 6.27224 | 35885 ft | 440 kts | 297° |
| 2026-05-06 18:59 | 50.21483 | 6.18859 | 35888 ft | 440 kts | 297° |
| 2026-05-06 19:00 | 50.24442 | 6.10489 | 35888 ft | 440 kts | 297° |
| 2026-05-06 19:00 | 50.27395 | 6.02109 | 35906 ft | 440 kts | 297° |
| 2026-05-06 19:01 | 50.30356 | 5.93679 | 35898 ft | 439 kts | 297° |
| 2026-05-06 19:01 | 50.33270 | 5.85354 | 35894 ft | 439 kts | 297° |
| 2026-05-06 19:02 | 50.36195 | 5.76970 | 35897 ft | 438 kts | 297° |
| 2026-05-06 19:02 | 50.39127 | 5.68539 | 35900 ft | 437 kts | 297° |
| 2026-05-06 19:03 | 50.42013 | 5.60215 | 35905 ft | 437 kts | 297° |
| 2026-05-06 19:03 | 50.44953 | 5.51704 | 35913 ft | 436 kts | 297° |
| 2026-05-06 19:04 | 50.47809 | 5.43409 | 35903 ft | 436 kts | 297° |
| 2026-05-06 19:04 | 50.50685 | 5.35031 | 35905 ft | 436 kts | 297° |
| 2026-05-06 19:05 | 50.53552 | 5.26648 | 35910 ft | 435 kts | 296° |
| 2026-05-06 19:05 | 50.56411 | 5.18262 | 35915 ft | 435 kts | 296° |
| 2026-05-06 19:06 | 50.59269 | 5.09852 | 35918 ft | 435 kts | 296° |
| 2026-05-06 19:06 | 50.62120 | 5.01433 | 35917 ft | 435 kts | 296° |
| 2026-05-06 19:07 | 50.64961 | 4.93016 | 35917 ft | 435 kts | 296° |
| 2026-05-06 19:07 | 50.67793 | 4.84596 | 35921 ft | 435 kts | 296° |
| 2026-05-06 19:08 | 50.70618 | 4.76171 | 35925 ft | 434 kts | 296° |
| 2026-05-06 19:08 | 50.73438 | 4.67734 | 35939 ft | 434 kts | 296° |
| 2026-05-06 19:09 | 50.76248 | 4.59293 | 35941 ft | 434 kts | 296° |
| 2026-05-06 19:09 | 50.79053 | 4.50843 | 35939 ft | 434 kts | 296° |
| 2026-05-06 19:10 | 50.81850 | 4.42388 | 35937 ft | 434 kts | 296° |
| 2026-05-06 19:10 | 50.84638 | 4.33932 | 35941 ft | 433 kts | 296° |
| 2026-05-06 19:11 | 50.87419 | 4.25467 | 35942 ft | 433 kts | 296° |
| 2026-05-06 19:11 | 50.90189 | 4.17010 | 35936 ft | 433 kts | 296° |
| 2026-05-06 19:12 | 50.92955 | 4.08531 | 35928 ft | 433 kts | 296° |
| 2026-05-06 19:12 | 50.95713 | 4.00051 | 35925 ft | 432 kts | 296° |
| 2026-05-06 19:13 | 50.98464 | 3.91564 | 35927 ft | 432 kts | 296° |
| 2026-05-06 19:13 | 51.01207 | 3.83073 | 35928 ft | 432 kts | 296° |
| 2026-05-06 19:14 | 51.03961 | 3.74516 | 35931 ft | 432 kts | 296° |
| 2026-05-06 19:14 | 51.06675 | 3.66056 | 35927 ft | 432 kts | 296° |
| 2026-05-06 19:15 | 51.09399 | 3.57535 | 35937 ft | 432 kts | 296° |
| 2026-05-06 19:15 | 51.12118 | 3.48999 | 35938 ft | 432 kts | 296° |
| 2026-05-06 19:16 | 51.14832 | 3.40452 | 35945 ft | 432 kts | 296° |
| 2026-05-06 19:16 | 51.17538 | 3.31900 | 35953 ft | 432 kts | 296° |
| 2026-05-06 19:17 | 51.20240 | 3.23331 | 35956 ft | 432 kts | 296° |
| 2026-05-06 19:17 | 51.22929 | 3.14770 | 35958 ft | 431 kts | 296° |
| 2026-05-06 19:18 | 51.25607 | 3.06218 | 35964 ft | 431 kts | 295° |
| 2026-05-06 19:18 | 51.28273 | 2.97670 | 35967 ft | 430 kts | 295° |
| 2026-05-06 19:19 | 51.30490 | 2.90541 | 35970 ft | 430 kts | 295° |
| 2026-05-06 19:19 | 51.33146 | 2.81978 | 35971 ft | 429 kts | 295° |
| 2026-05-06 19:20 | 51.35550 | 2.73258 | 35952 ft | 427 kts | 285° |
| 2026-05-06 19:20 | 51.36726 | 2.63970 | 35963 ft | 425 kts | 280° |
| 2026-05-06 19:21 | 51.37801 | 2.54670 | 35963 ft | 424 kts | 280° |
| 2026-05-06 19:21 | 51.38908 | 2.45400 | 35971 ft | 423 kts | 280° |
| 2026-05-06 19:22 | 51.40024 | 2.36147 | 35981 ft | 423 kts | 280° |
| 2026-05-06 19:22 | 51.41130 | 2.26903 | 35975 ft | 423 kts | 280° |
| 2026-05-06 19:23 | 51.42252 | 2.17657 | 35982 ft | 423 kts | 281° |
| 2026-05-06 19:23 | 51.43385 | 2.08402 | 35986 ft | 423 kts | 281° |
| 2026-05-06 19:24 | 51.44506 | 1.99134 | 35986 ft | 424 kts | 280° |
| 2026-05-06 19:24 | 51.45614 | 1.89833 | 35985 ft | 425 kts | 280° |
| 2026-05-06 19:25 | 51.46701 | 1.80510 | 35985 ft | 425 kts | 280° |
| 2026-05-06 19:25 | 51.47766 | 1.71174 | 35988 ft | 426 kts | 280° |
| 2026-05-06 19:26 | 51.48831 | 1.61813 | 35986 ft | 426 kts | 280° |
| 2026-05-06 19:26 | 51.49891 | 1.52447 | 35993 ft | 427 kts | 279° |
| 2026-05-06 19:27 | 51.50947 | 1.43069 | 35993 ft | 427 kts | 279° |
| 2026-05-06 19:27 | 51.52001 | 1.33630 | 35993 ft | 426 kts | 279° |
| 2026-05-06 19:28 | 51.53040 | 1.24259 | 36000 ft | 426 kts | 279° |
| 2026-05-06 19:28 | 51.54071 | 1.14888 | 35997 ft | 425 kts | 279° |
| 2026-05-06 19:29 | 51.55096 | 1.05530 | 35993 ft | 425 kts | 279° |
| 2026-05-06 19:29 | 51.56114 | 0.96183 | 35997 ft | 424 kts | 279° |
| 2026-05-06 19:30 | 51.57117 | 0.86845 | 36030 ft | 424 kts | 279° |
| 2026-05-06 19:30 | 51.58106 | 0.77567 | 36020 ft | 423 kts | 279° |
| 2026-05-06 19:31 | 51.59158 | 0.68262 | 36015 ft | 423 kts | 285° |
| 2026-05-06 19:31 | 51.63315 | 0.55820 | 36029 ft | 426 kts | 308° |
| 2026-05-06 19:32 | 51.67154 | 0.48551 | 36012 ft | 426 kts | 311° |
| 2026-05-06 19:32 | 51.71533 | 0.42082 | 36011 ft | 428 kts | 317° |
| 2026-05-06 19:33 | 51.76055 | 0.35833 | 36018 ft | 428 kts | 317° |
| 2026-05-06 19:33 | 51.80546 | 0.29527 | 36021 ft | 428 kts | 317° |
| 2026-05-06 19:34 | 51.85014 | 0.23167 | 36025 ft | 428 kts | 316° |
| 2026-05-06 19:34 | 51.89510 | 0.16732 | 36021 ft | 428 kts | 316° |
| 2026-05-06 19:35 | 51.93849 | 0.10505 | 36022 ft | 428 kts | 316° |
| 2026-05-06 19:35 | 51.98311 | 0.04089 | 36018 ft | 428 kts | 316° |
| 2026-05-06 19:36 | 52.02829 | -0.02221 | 36011 ft | 429 kts | 322° |
| 2026-05-06 19:36 | 52.08034 | -0.07033 | 36020 ft | 431 kts | 330° |
| 2026-05-06 19:37 | 52.13349 | -0.11555 | 36017 ft | 431 kts | 330° |
| 2026-05-06 19:37 | 52.17739 | -0.15366 | 36018 ft | 430 kts | 329° |
| 2026-05-06 19:38 | 52.23892 | -0.20786 | 36018 ft | 430 kts | 329° |
| 2026-05-06 19:38 | 52.29146 | -0.25432 | 36037 ft | 430 kts | 329° |
| 2026-05-06 19:39 | 52.34402 | -0.30088 | 36031 ft | 429 kts | 329° |
| 2026-05-06 19:39 | 52.39655 | -0.34751 | 36035 ft | 429 kts | 329° |
| 2026-05-06 19:40 | 52.44894 | -0.39415 | 36042 ft | 429 kts | 329° |
| 2026-05-06 19:40 | 52.50129 | -0.44089 | 36048 ft | 428 kts | 329° |
| 2026-05-06 19:41 | 52.55357 | -0.48769 | 36055 ft | 428 kts | 329° |
| 2026-05-06 19:41 | 52.60589 | -0.53467 | 36048 ft | 428 kts | 329° |
| 2026-05-06 19:42 | 52.65812 | -0.58169 | 36046 ft | 428 kts | 329° |
| 2026-05-06 19:42 | 52.71034 | -0.62883 | 36047 ft | 428 kts | 329° |
| 2026-05-06 19:43 | 52.76287 | -0.67638 | 36046 ft | 428 kts | 329° |
| 2026-05-06 19:43 | 52.81507 | -0.72377 | 36053 ft | 428 kts | 329° |
| 2026-05-06 19:44 | 52.86722 | -0.77124 | 36049 ft | 428 kts | 329° |
| 2026-05-06 19:44 | 52.91934 | -0.81882 | 36050 ft | 428 kts | 329° |
| 2026-05-06 19:45 | 52.97149 | -0.86655 | 36050 ft | 428 kts | 329° |
| 2026-05-06 19:45 | 53.02358 | -0.91435 | 36059 ft | 428 kts | 329° |
| 2026-05-06 19:46 | 53.07571 | -0.96222 | 36055 ft | 427 kts | 329° |
| 2026-05-06 19:46 | 53.12739 | -1.00980 | 36057 ft | 427 kts | 329° |
| 2026-05-06 19:47 | 53.17932 | -1.05777 | 36057 ft | 426 kts | 330° |
| 2026-05-06 19:47 | 53.23119 | -1.10581 | 36052 ft | 426 kts | 330° |
| 2026-05-06 19:48 | 53.28302 | -1.15396 | 35662 ft | 426 kts | 330° |
| 2026-05-06 19:48 | 53.30904 | -1.17819 | 35273 ft | 420 kts | 330° |
| 2026-05-06 19:48 | 53.33411 | -1.20154 | 34900 ft | 415 kts | 330° |
| 2026-05-06 19:49 | 53.35918 | -1.22493 | 34504 ft | 411 kts | 330° |
| 2026-05-06 19:49 | 53.38473 | -1.24512 | 34232 ft | 400 kts | 339° |
| 2026-05-06 19:49 | 53.41072 | -1.26009 | 33753 ft | 392 kts | 341° |
| 2026-05-06 19:49 | 53.43687 | -1.27420 | 33036 ft | 388 kts | 341° |
| 2026-05-06 19:50 | 53.46251 | -1.28800 | 32339 ft | 386 kts | 341° |
| 2026-05-06 19:50 | 53.48795 | -1.30192 | 31689 ft | 382 kts | 341° |
| 2026-05-06 19:50 | 53.51267 | -1.31568 | 31123 ft | 377 kts | 341° |
| 2026-05-06 19:50 | 53.53741 | -1.32964 | 30544 ft | 373 kts | 341° |
| 2026-05-06 19:51 | 53.56217 | -1.34371 | 29922 ft | 369 kts | 341° |
| 2026-05-06 19:51 | 53.58639 | -1.35753 | 28950 ft | 370 kts | 340° |
| 2026-05-06 19:51 | 53.61113 | -1.37168 | 27849 ft | 377 kts | 340° |
| 2026-05-06 19:51 | 53.63582 | -1.38582 | 27154 ft | 373 kts | 340° |
| 2026-05-06 19:52 | 53.65990 | -1.39961 | 26552 ft | 367 kts | 340° |
| 2026-05-06 19:52 | 53.68397 | -1.41342 | 25890 ft | 364 kts | 340° |
| 2026-05-06 19:52 | 53.70783 | -1.42712 | 25205 ft | 361 kts | 340° |
| 2026-05-06 19:52 | 53.73089 | -1.44345 | 24529 ft | 358 kts | 330° |
| 2026-05-06 19:53 | 53.75246 | -1.46499 | 23898 ft | 354 kts | 327° |
| 2026-05-06 19:53 | 53.77299 | -1.48675 | 23230 ft | 351 kts | 326° |
| 2026-05-06 19:53 | 53.78693 | -1.50162 | 22764 ft | 349 kts | 326° |
| 2026-05-06 19:53 | 53.81401 | -1.53022 | 21899 ft | 345 kts | 326° |
| 2026-05-06 19:54 | 53.83451 | -1.55161 | 21379 ft | 346 kts | 327° |
| 2026-05-06 19:54 | 53.85488 | -1.57269 | 21037 ft | 341 kts | 327° |
| 2026-05-06 19:54 | 53.87492 | -1.59335 | 20583 ft | 334 kts | 327° |
| 2026-05-06 19:54 | 53.88839 | -1.60721 | 20132 ft | 334 kts | 327° |
| 2026-05-06 19:55 | 53.90800 | -1.62739 | 19809 ft | 327 kts | 327° |
| 2026-05-06 19:55 | 53.92712 | -1.64708 | 19518 ft | 318 kts | 326° |
| 2026-05-06 19:55 | 53.94598 | -1.66653 | 19001 ft | 317 kts | 326° |
| 2026-05-06 19:55 | 53.96479 | -1.68595 | 18471 ft | 317 kts | 326° |
| 2026-05-06 19:56 | 53.98356 | -1.70534 | 17966 ft | 314 kts | 326° |
| 2026-05-06 19:56 | 54.00209 | -1.72449 | 17539 ft | 309 kts | 326° |
| 2026-05-06 19:56 | 54.02024 | -1.74327 | 17183 ft | 302 kts | 326° |
| 2026-05-06 19:56 | 54.03794 | -1.76156 | 16853 ft | 294 kts | 326° |
| 2026-05-06 19:57 | 54.05522 | -1.77942 | 16558 ft | 287 kts | 326° |
| 2026-05-06 19:57 | 54.07217 | -1.79695 | 16252 ft | 283 kts | 326° |
| 2026-05-06 19:57 | 54.08893 | -1.81432 | 15955 ft | 282 kts | 326° |
| 2026-05-06 19:57 | 54.10580 | -1.83182 | 15670 ft | 288 kts | 326° |
| 2026-05-06 19:58 | 54.12329 | -1.84998 | 15376 ft | 300 kts | 327° |
| 2026-05-06 19:58 | 54.14291 | -1.86252 | 15018 ft | 304 kts | 351° |
| 2026-05-06 19:58 | 54.16385 | -1.86130 | 14727 ft | 299 kts | 7° |
| 2026-05-06 19:58 | 54.18387 | -1.85518 | 14422 ft | 293 kts | 8° |
| 2026-05-06 19:59 | 54.20362 | -1.84859 | 14119 ft | 286 kts | 8° |
| 2026-05-06 19:59 | 54.22312 | -1.84209 | 13830 ft | 286 kts | 8° |
| 2026-05-06 19:59 | 54.24280 | -1.83564 | 13517 ft | 290 kts | 8° |
| 2026-05-06 19:59 | 54.26287 | -1.82918 | 13232 ft | 297 kts | 8° |
| 2026-05-06 20:00 | 54.28334 | -1.82266 | 12990 ft | 301 kts | 8° |
| 2026-05-06 20:00 | 54.30390 | -1.81614 | 12726 ft | 299 kts | 8° |
| 2026-05-06 20:00 | 54.32429 | -1.80968 | 12405 ft | 297 kts | 8° |
| 2026-05-06 20:00 | 54.34447 | -1.80332 | 12095 ft | 294 kts | 8° |
| 2026-05-06 20:01 | 54.36452 | -1.79699 | 11804 ft | 292 kts | 8° |
| 2026-05-06 20:01 | 54.38450 | -1.79069 | 11496 ft | 291 kts | 8° |
| 2026-05-06 20:01 | 54.40431 | -1.78443 | 11195 ft | 289 kts | 8° |
| 2026-05-06 20:01 | 54.42401 | -1.77821 | 10933 ft | 286 kts | 8° |
| 2026-05-06 20:02 | 54.44354 | -1.77203 | 10637 ft | 285 kts | 8° |
| 2026-05-06 20:02 | 54.46300 | -1.76587 | 10340 ft | 283 kts | 8° |
| 2026-05-06 20:02 | 54.48216 | -1.75980 | 10198 ft | 276 kts | 8° |
| 2026-05-06 20:02 | 54.50084 | -1.75386 | 10048 ft | 270 kts | 8° |
| 2026-05-06 20:03 | 54.51928 | -1.74802 | 9748 ft | 269 kts | 8° |
| 2026-05-06 20:03 | 54.53763 | -1.74219 | 9463 ft | 268 kts | 8° |
| 2026-05-06 20:03 | 54.55590 | -1.73638 | 9184 ft | 266 kts | 8° |
| 2026-05-06 20:03 | 54.57407 | -1.73059 | 8901 ft | 264 kts | 8° |
| 2026-05-06 20:04 | 54.59208 | -1.72485 | 8639 ft | 262 kts | 8° |
| 2026-05-06 20:04 | 54.61019 | -1.71907 | 8365 ft | 260 kts | 8° |
| 2026-05-06 20:04 | 54.62796 | -1.71340 | 8099 ft | 259 kts | 8° |
| 2026-05-06 20:04 | 54.64558 | -1.70776 | 7832 ft | 257 kts | 8° |
| 2026-05-06 20:05 | 54.66315 | -1.70214 | 7579 ft | 256 kts | 8° |
| 2026-05-06 20:05 | 54.68060 | -1.69656 | 7316 ft | 255 kts | 8° |
| 2026-05-06 20:05 | 54.69804 | -1.69346 | 7029 ft | 251 kts | 350° |
| 2026-05-06 20:05 | 54.71429 | -1.70336 | 6794 ft | 250 kts | 333° |
| 2026-05-06 20:06 | 54.72996 | -1.71732 | 6437 ft | 254 kts | 332° |
| 2026-05-06 20:06 | 54.74556 | -1.73165 | 6160 ft | 254 kts | 331° |
| 2026-05-06 20:06 | 54.76107 | -1.74592 | 5886 ft | 250 kts | 331° |
| 2026-05-06 20:06 | 54.77624 | -1.75983 | 5624 ft | 242 kts | 331° |
| 2026-05-06 20:07 | 54.79091 | -1.77324 | 5388 ft | 235 kts | 331° |
| 2026-05-06 20:07 | 54.80519 | -1.78626 | 5162 ft | 228 kts | 331° |
| 2026-05-06 20:07 | 54.81901 | -1.79886 | 4950 ft | 221 kts | 331° |
| 2026-05-06 20:07 | 54.83240 | -1.81106 | 4743 ft | 215 kts | 331° |
| 2026-05-06 20:08 | 54.84545 | -1.82295 | 4540 ft | 209 kts | 331° |
| 2026-05-06 20:08 | 54.85820 | -1.83456 | 4375 ft | 209 kts | 330° |
| 2026-05-06 20:08 | 54.87128 | -1.84649 | 4180 ft | 215 kts | 331° |
| 2026-05-06 20:08 | 54.88463 | -1.85867 | 3981 ft | 218 kts | 330° |
| 2026-05-06 20:09 | 54.89803 | -1.87088 | 3752 ft | 217 kts | 331° |
| 2026-05-06 20:09 | 54.91140 | -1.88309 | 3572 ft | 215 kts | 331° |
| 2026-05-06 20:09 | 54.92492 | -1.89542 | 3448 ft | 216 kts | 331° |
| 2026-05-06 20:09 | 54.93808 | -1.90746 | 3252 ft | 215 kts | 331° |
| 2026-05-06 20:10 | 54.95115 | -1.91939 | 3056 ft | 209 kts | 332° |
| 2026-05-06 20:10 | 54.96462 | -1.92700 | 2837 ft | 203 kts | 4° |
| 2026-05-06 20:10 | 54.97677 | -1.91747 | 2644 ft | 189 kts | 53° |
| 2026-05-06 20:10 | 54.98219 | -1.89718 | 2531 ft | 186 kts | 71° |
| 2026-05-06 20:11 | 54.98823 | -1.87711 | 2347 ft | 186 kts | 64° |
| 2026-05-06 20:11 | 54.99378 | -1.85713 | 2243 ft | 182 kts | 68° |
| 2026-05-06 20:11 | 54.99856 | -1.83907 | 2032 ft | 184 kts | 68° |
| 2026-05-06 20:11 | 55.00378 | -1.81925 | 1793 ft | 180 kts | 68° |
| 2026-05-06 20:12 | 55.00881 | -1.80015 | 1549 ft | 170 kts | 68° |
| 2026-05-06 20:12 | 55.01357 | -1.78210 | 1307 ft | 161 kts | 68° |
| 2026-05-06 20:12 | 55.01785 | -1.76587 | 1110 ft | 147 kts | 68° |
| 2026-05-06 20:12 | 55.02201 | -1.75010 | 871 ft | 141 kts | 68° |
| 2026-05-06 20:13 | 55.02607 | -1.73420 | 706 ft | 144 kts | 67° |
| 2026-05-06 20:13 | 55.03029 | -1.71841 | 475 ft | 143 kts | 67° |
| 2026-05-06 20:13 | 55.03374 | -1.70561 | 324 ft | 141 kts | 67° |
| 2026-05-06 20:13 | 55.03665 | -1.69481 | 276 ft | 131 kts | 67° |
| 2026-05-06 20:14 | 55.03848 | -1.68789 | 269 ft | 126 kts | 67° |
| 2026-05-06 20:14 | 55.04261 | -1.67245 | 810 ft | 153 kts | 66° |
| 2026-05-06 20:14 | 55.04751 | -1.65485 | 1816 ft | 165 kts | 66° |
| 2026-05-06 20:14 | 55.05489 | -1.63857 | 2644 ft | 188 kts | 41° |
| 2026-05-06 20:15 | 55.06749 | -1.62719 | 2595 ft | 211 kts | 14° |
| 2026-05-06 20:15 | 55.08024 | -1.62641 | 2361 ft | 214 kts | 348° |
| 2026-05-06 20:15 | 55.09327 | -1.63768 | 2008 ft | 212 kts | 319° |
| 2026-05-06 20:15 | 55.10287 | -1.65365 | 1991 ft | 207 kts | 314° |
| 2026-05-06 20:16 | 55.11285 | -1.67191 | 2286 ft | 222 kts | 312° |
| 2026-05-06 20:16 | 55.12373 | -1.69212 | 2473 ft | 231 kts | 312° |
| 2026-05-06 20:16 | 55.13419 | -1.71362 | 2547 ft | 233 kts | 298° |
| 2026-05-06 20:16 | 55.13841 | -1.74024 | 2528 ft | 227 kts | 264° |
| 2026-05-06 20:17 | 55.13486 | -1.76639 | 2517 ft | 223 kts | 248° |
| 2026-05-06 20:17 | 55.12943 | -1.79180 | 2535 ft | 225 kts | 246° |
| 2026-05-06 20:17 | 55.12368 | -1.81714 | 2565 ft | 224 kts | 246° |
| 2026-05-06 20:17 | 55.11786 | -1.84252 | 2528 ft | 226 kts | 246° |
| 2026-05-06 20:18 | 55.11204 | -1.86756 | 2718 ft | 220 kts | 246° |
| 2026-05-06 20:18 | 55.10678 | -1.89273 | 2905 ft | 226 kts | 254° |
| 2026-05-06 20:18 | 55.10351 | -1.91987 | 2740 ft | 227 kts | 252° |
| 2026-05-06 20:18 | 55.09896 | -1.94558 | 2601 ft | 225 kts | 250° |
| 2026-05-06 20:19 | 55.09417 | -1.97157 | 2518 ft | 226 kts | 250° |
| 2026-05-06 20:19 | 55.08929 | -1.99791 | 2499 ft | 224 kts | 250° |
| 2026-05-06 20:19 | 55.08454 | -2.02342 | 2497 ft | 224 kts | 249° |
| 2026-05-06 20:19 | 55.07663 | -2.04589 | 2478 ft | 220 kts | 216° |
| 2026-05-06 20:20 | 55.06252 | -2.05395 | 2490 ft | 217 kts | 175° |
| 2026-05-06 20:20 | 55.04818 | -2.04819 | 2498 ft | 209 kts | 165° |
| 2026-05-06 20:20 | 55.03418 | -2.04168 | 2475 ft | 203 kts | 165° |
| 2026-05-06 20:20 | 55.02066 | -2.03547 | 2487 ft | 200 kts | 165° |
| 2026-05-06 20:21 | 55.00731 | -2.02930 | 2477 ft | 191 kts | 165° |
| 2026-05-06 20:21 | 54.99485 | -2.02348 | 2470 ft | 180 kts | 162° |
| 2026-05-06 20:21 | 54.98525 | -2.01121 | 2456 ft | 178 kts | 119° |
| 2026-05-06 20:21 | 54.98262 | -1.99009 | 2394 ft | 181 kts | 99° |
| 2026-05-06 20:22 | 54.98151 | -1.97540 | 2309 ft | 181 kts | 100° |
| 2026-05-06 20:22 | 54.97977 | -1.95383 | 2225 ft | 179 kts | 100° |
| 2026-05-06 20:22 | 54.97803 | -1.93225 | 2214 ft | 176 kts | 99° |
| 2026-05-06 20:22 | 54.97897 | -1.91111 | 2192 ft | 182 kts | 66° |
| 2026-05-06 20:23 | 54.98503 | -1.89169 | 2211 ft | 184 kts | 68° |
| 2026-05-06 20:23 | 54.99016 | -1.87138 | 2232 ft | 183 kts | 69° |
| 2026-05-06 20:23 | 54.99533 | -1.85138 | 2165 ft | 178 kts | 68° |
| 2026-05-06 20:23 | 55.00042 | -1.83198 | 1950 ft | 174 kts | 68° |
| 2026-05-06 20:24 | 55.00542 | -1.81302 | 1716 ft | 171 kts | 68° |
| 2026-05-06 20:24 | 55.01030 | -1.79450 | 1485 ft | 164 kts | 68° |
| 2026-05-06 20:24 | 55.01493 | -1.77692 | 1228 ft | 155 kts | 67° |
| 2026-05-06 20:24 | 55.01930 | -1.76041 | 1037 ft | 147 kts | 68° |
| 2026-05-06 20:25 | 55.02353 | -1.74434 | 810 ft | 143 kts | 67° |
| 2026-05-06 20:25 | 55.02763 | -1.72865 | 623 ft | 142 kts | 67° |
| 2026-05-06 20:25 | 55.03171 | -1.71317 | 412 ft | 140 kts | 66° |
| 2026-05-06 20:25 | 55.03586 | -1.69771 | 260 ft | 135 kts | 62° |
| 2026-05-06 20:26 | 55.03919 | -1.68501 | 248 ft | 94 kts | 64° |
| 2026-05-06 20:26 | 55.04121 | -1.67747 | 246 ft | 23 kts | 64° |
| 2026-05-06 20:26 | 55.04185 | -1.67509 | 243 ft | 14 kts | 65° |
| 2026-05-06 20:26 | 55.04227 | -1.67382 | 241 ft | 3 kts | 35° |
| 2026-05-06 20:27 | 55.04282 | -1.67376 | 240 ft | 11 kts | 351° |
| 2026-05-06 20:27 | 55.04332 | -1.67513 | 241 ft | 19 kts | 276° |
| 2026-05-06 20:27 | 55.04303 | -1.67736 | 244 ft | 22 kts | 246° |
| 2026-05-06 20:27 | 55.04231 | -1.68011 | 246 ft | 26 kts | 245° |
| 2026-05-06 20:28 | 55.04158 | -1.68289 | 247 ft | 24 kts | 246° |
| 2026-05-06 20:28 | 55.04089 | -1.68544 | 248 ft | 22 kts | 244° |
| 2026-05-06 20:28 | 55.04028 | -1.68783 | 249 ft | 21 kts | 246° |
| 2026-05-06 20:28 | 55.03966 | -1.69010 | 251 ft | 20 kts | 244° |
| 2026-05-06 20:29 | 55.03909 | -1.69229 | 253 ft | 20 kts | 244° |
| 2026-05-06 20:29 | 55.03852 | -1.69444 | 254 ft | 19 kts | 244° |
| 2026-05-06 20:29 | 55.03806 | -1.69660 | 257 ft | 19 kts | 255° |
| 2026-05-06 20:29 | 55.03782 | -1.69874 | 258 ft | 18 kts | 263° |
| 2026-05-06 20:30 | 55.03774 | -1.70087 | 261 ft | 17 kts | 270° |
| 2026-05-06 20:30 | 55.03779 | -1.70363 | 266 ft | 4 kts | 258° |
| 2026-05-06 20:30 | 55.03767 | -1.70401 | 266 ft | 3 kts | 227° |
| 2026-05-06 20:31 | 55.03745 | -1.70422 | 266 ft | 3 kts | 199° |
| 2026-05-06 20:31 | 55.03724 | -1.70429 | 266 ft | 2 kts | 190° |
| 2026-05-06 20:31 | 55.03723 | -1.70430 | 266 ft | 0 kts | 196° |
| 2026-05-06 20:31 | 55.03706 | -1.70465 | 266 ft | 2 kts | 250° |
| 2026-05-06 20:32 | 55.03703 | -1.70489 | 266 ft | 2 kts | 258° |
| 2026-05-06 20:32 | 55.03701 | -1.70513 | 266 ft | 2 kts | 262° |
| 2026-05-06 20:32 | 55.03699 | -1.70536 | 266 ft | 2 kts | 262° |
| 2026-05-06 20:32 | 55.03698 | -1.70557 | 266 ft | 2 kts | 263° |
| 2026-05-06 20:33 | 55.03697 | -1.70565 | 266 ft | 1 kts | 263° |
| 2026-05-06 20:33 | 55.03697 | -1.70569 | 266 ft | 0 kts | 264° |